sensor_id;sensor_type;location;lat;lon;timestamp;P1;durP1;ratioP1;P2;durP2;ratioP2
56343;SDS011;42245;42.058;24.700;2023-04-24T00:01:29;12.40;;;7.93;;
56343;SDS011;42245;42.058;24.700;2023-04-24T00:03:55;12.95;;;8.85;;
56343;SDS011;42245;42.058;24.700;2023-04-24T00:06:24;14.40;;;9.38;;
56343;SDS011;42245;42.058;24.700;2023-04-24T00:08:57;11.43;;;8.60;;
56343;SDS011;42245;42.058;24.700;2023-04-24T00:11:23;12.80;;;9.40;;
56343;SDS011;42245;42.058;24.700;2023-04-24T00:13:49;15.00;;;8.85;;
56343;SDS011;42245;42.058;24.700;2023-04-24T00:16:14;12.70;;;9.30;;
56343;SDS011;42245;42.058;24.700;2023-04-24T00:18:39;12.80;;;8.95;;
56343;SDS011;42245;42.058;24.700;2023-04-24T00:21:06;12.48;;;9.30;;
56343;SDS011;42245;42.058;24.700;2023-04-24T00:23:32;12.52;;;8.65;;
56343;SDS011;42245;42.058;24.700;2023-04-24T00:25:57;12.15;;;8.52;;
56343;SDS011;42245;42.058;24.700;2023-04-24T00:28:22;19.90;;;9.55;;
56343;SDS011;42245;42.058;24.700;2023-04-24T00:30:48;14.43;;;8.95;;
56343;SDS011;42245;42.058;24.700;2023-04-24T00:33:13;17.05;;;9.20;;
56343;SDS011;42245;42.058;24.700;2023-04-24T00:35:39;12.82;;;9.43;;
56343;SDS011;42245;42.058;24.700;2023-04-24T00:38:05;11.00;;;9.00;;
56343;SDS011;42245;42.058;24.700;2023-04-24T00:40:30;11.50;;;9.07;;
56343;SDS011;42245;42.058;24.700;2023-04-24T00:42:56;15.52;;;9.73;;
56343;SDS011;42245;42.058;24.700;2023-04-24T00:45:21;15.35;;;9.43;;
56343;SDS011;42245;42.058;24.700;2023-04-24T00:47:46;15.18;;;9.45;;
56343;SDS011;42245;42.058;24.700;2023-04-24T00:50:14;13.27;;;9.10;;
56343;SDS011;42245;42.058;24.700;2023-04-24T00:52:40;12.52;;;8.82;;
56343;SDS011;42245;42.058;24.700;2023-04-24T00:55:06;14.40;;;8.90;;
56343;SDS011;42245;42.058;24.700;2023-04-24T00:57:32;15.07;;;8.70;;
56343;SDS011;42245;42.058;24.700;2023-04-24T00:59:57;14.95;;;9.27;;
56343;SDS011;42245;42.058;24.700;2023-04-24T01:02:23;10.57;;;8.88;;
56343;SDS011;42245;42.058;24.700;2023-04-24T01:04:50;13.32;;;9.10;;
56343;SDS011;42245;42.058;24.700;2023-04-24T01:07:16;13.52;;;8.85;;
56343;SDS011;42245;42.058;24.700;2023-04-24T01:09:43;13.10;;;9.15;;
56343;SDS011;42245;42.058;24.700;2023-04-24T01:12:12;18.40;;;10.93;;
56343;SDS011;42245;42.058;24.700;2023-04-24T01:14:37;12.70;;;9.82;;
56343;SDS011;42245;42.058;24.700;2023-04-24T01:17:03;19.35;;;11.50;;
56343;SDS011;42245;42.058;24.700;2023-04-24T01:19:29;16.40;;;10.05;;
56343;SDS011;42245;42.058;24.700;2023-04-24T01:21:54;15.65;;;11.65;;
56343;SDS011;42245;42.058;24.700;2023-04-24T01:24:23;16.00;;;10.18;;
56343;SDS011;42245;42.058;24.700;2023-04-24T01:26:48;11.45;;;9.70;;
56343;SDS011;42245;42.058;24.700;2023-04-24T01:29:14;14.18;;;10.18;;
56343;SDS011;42245;42.058;24.700;2023-04-24T01:31:40;12.95;;;9.45;;
56343;SDS011;42245;42.058;24.700;2023-04-24T01:34:05;13.82;;;9.77;;
56343;SDS011;42245;42.058;24.700;2023-04-24T01:36:31;19.50;;;11.10;;
56343;SDS011;42245;42.058;24.700;2023-04-24T01:38:58;15.95;;;10.30;;
56343;SDS011;42245;42.058;24.700;2023-04-24T01:41:23;16.00;;;10.57;;
56343;SDS011;42245;42.058;24.700;2023-04-24T01:43:48;15.57;;;10.98;;
56343;SDS011;42245;42.058;24.700;2023-04-24T01:46:14;19.70;;;11.93;;
56343;SDS011;42245;42.058;24.700;2023-04-24T01:48:40;20.80;;;11.70;;
56343;SDS011;42245;42.058;24.700;2023-04-24T01:51:06;15.27;;;11.20;;
56343;SDS011;42245;42.058;24.700;2023-04-24T01:53:32;15.32;;;11.20;;
56343;SDS011;42245;42.058;24.700;2023-04-24T01:55:57;15.73;;;10.23;;
56343;SDS011;42245;42.058;24.700;2023-04-24T01:58:22;12.45;;;10.48;;
56343;SDS011;42245;42.058;24.700;2023-04-24T02:00:48;15.00;;;10.90;;
56343;SDS011;42245;42.058;24.700;2023-04-24T02:03:13;14.32;;;11.00;;
56343;SDS011;42245;42.058;24.700;2023-04-24T02:05:39;14.07;;;9.82;;
56343;SDS011;42245;42.058;24.700;2023-04-24T02:08:04;13.52;;;10.27;;
56343;SDS011;42245;42.058;24.700;2023-04-24T02:10:29;14.77;;;10.27;;
56343;SDS011;42245;42.058;24.700;2023-04-24T02:12:55;15.05;;;10.40;;
56343;SDS011;42245;42.058;24.700;2023-04-24T02:15:20;14.88;;;10.50;;
56343;SDS011;42245;42.058;24.700;2023-04-24T02:17:46;14.00;;;10.57;;
56343;SDS011;42245;42.058;24.700;2023-04-24T02:20:11;15.55;;;10.68;;
56343;SDS011;42245;42.058;24.700;2023-04-24T02:22:37;12.95;;;10.45;;
56343;SDS011;42245;42.058;24.700;2023-04-24T02:25:02;15.77;;;10.05;;
56343;SDS011;42245;42.058;24.700;2023-04-24T02:27:28;15.15;;;10.90;;
56343;SDS011;42245;42.058;24.700;2023-04-24T02:29:54;15.27;;;10.77;;
56343;SDS011;42245;42.058;24.700;2023-04-24T02:32:20;15.20;;;11.25;;
56343;SDS011;42245;42.058;24.700;2023-04-24T02:34:45;22.75;;;12.20;;
56343;SDS011;42245;42.058;24.700;2023-04-24T02:37:11;17.60;;;12.02;;
56343;SDS011;42245;42.058;24.700;2023-04-24T02:39:36;12.85;;;10.43;;
56343;SDS011;42245;42.058;24.700;2023-04-24T02:42:01;18.45;;;11.73;;
56343;SDS011;42245;42.058;24.700;2023-04-24T02:44:27;19.02;;;12.30;;
56343;SDS011;42245;42.058;24.700;2023-04-24T02:46:52;20.38;;;11.98;;
56343;SDS011;42245;42.058;24.700;2023-04-24T02:49:17;18.40;;;11.55;;
56343;SDS011;42245;42.058;24.700;2023-04-24T02:51:43;18.90;;;12.48;;
56343;SDS011;42245;42.058;24.700;2023-04-24T02:54:08;19.95;;;12.95;;
56343;SDS011;42245;42.058;24.700;2023-04-24T02:56:34;17.60;;;12.07;;
56343;SDS011;42245;42.058;24.700;2023-04-24T02:59:00;24.33;;;11.35;;
56343;SDS011;42245;42.058;24.700;2023-04-24T03:01:25;14.63;;;11.35;;
56343;SDS011;42245;42.058;24.700;2023-04-24T03:03:51;24.88;;;12.82;;
56343;SDS011;42245;42.058;24.700;2023-04-24T03:06:16;17.17;;;11.95;;
56343;SDS011;42245;42.058;24.700;2023-04-24T03:08:41;16.95;;;11.80;;
56343;SDS011;42245;42.058;24.700;2023-04-24T03:11:07;17.80;;;11.77;;
56343;SDS011;42245;42.058;24.700;2023-04-24T03:13:32;20.05;;;12.25;;
56343;SDS011;42245;42.058;24.700;2023-04-24T03:15:58;21.60;;;13.32;;
56343;SDS011;42245;42.058;24.700;2023-04-24T03:18:23;23.35;;;13.75;;
56343;SDS011;42245;42.058;24.700;2023-04-24T03:20:49;20.20;;;13.68;;
56343;SDS011;42245;42.058;24.700;2023-04-24T03:23:15;21.52;;;12.93;;
56343;SDS011;42245;42.058;24.700;2023-04-24T03:25:40;19.38;;;13.23;;
56343;SDS011;42245;42.058;24.700;2023-04-24T03:28:07;21.40;;;14.35;;
56343;SDS011;42245;42.058;24.700;2023-04-24T03:30:33;23.05;;;14.07;;
56343;SDS011;42245;42.058;24.700;2023-04-24T03:32:58;17.98;;;12.48;;
56343;SDS011;42245;42.058;24.700;2023-04-24T03:35:24;18.67;;;11.98;;
56343;SDS011;42245;42.058;24.700;2023-04-24T03:37:49;16.33;;;12.13;;
56343;SDS011;42245;42.058;24.700;2023-04-24T03:40:14;16.65;;;11.80;;
56343;SDS011;42245;42.058;24.700;2023-04-24T03:42:40;17.17;;;12.27;;
56343;SDS011;42245;42.058;24.700;2023-04-24T03:45:06;16.50;;;11.75;;
56343;SDS011;42245;42.058;24.700;2023-04-24T03:47:31;14.40;;;11.40;;
56343;SDS011;42245;42.058;24.700;2023-04-24T03:49:57;21.35;;;12.02;;
56343;SDS011;42245;42.058;24.700;2023-04-24T03:52:22;15.15;;;10.73;;
56343;SDS011;42245;42.058;24.700;2023-04-24T03:54:48;15.15;;;10.73;;
56343;SDS011;42245;42.058;24.700;2023-04-24T03:57:13;14.27;;;10.23;;
56343;SDS011;42245;42.058;24.700;2023-04-24T03:59:38;15.88;;;11.07;;
56343;SDS011;42245;42.058;24.700;2023-04-24T04:02:04;16.55;;;10.25;;
56343;SDS011;42245;42.058;24.700;2023-04-24T04:04:30;13.15;;;9.27;;
56343;SDS011;42245;42.058;24.700;2023-04-24T04:06:56;13.93;;;9.60;;
56343;SDS011;42245;42.058;24.700;2023-04-24T04:09:21;13.10;;;9.90;;
56343;SDS011;42245;42.058;24.700;2023-04-24T04:11:47;12.63;;;9.55;;
56343;SDS011;42245;42.058;24.700;2023-04-24T04:14:12;13.32;;;9.95;;
56343;SDS011;42245;42.058;24.700;2023-04-24T04:16:38;17.65;;;10.52;;
56343;SDS011;42245;42.058;24.700;2023-04-24T04:19:03;15.43;;;10.88;;
56343;SDS011;42245;42.058;24.700;2023-04-24T04:21:29;16.85;;;10.80;;
56343;SDS011;42245;42.058;24.700;2023-04-24T04:23:56;14.40;;;11.35;;
56343;SDS011;42245;42.058;24.700;2023-04-24T04:26:21;17.45;;;11.88;;
56343;SDS011;42245;42.058;24.700;2023-04-24T04:28:50;14.88;;;11.65;;
56343;SDS011;42245;42.058;24.700;2023-04-24T04:31:19;22.73;;;12.35;;
56343;SDS011;42245;42.058;24.700;2023-04-24T04:33:46;16.63;;;10.95;;
56343;SDS011;42245;42.058;24.700;2023-04-24T04:36:11;26.63;;;11.75;;
56343;SDS011;42245;42.058;24.700;2023-04-24T04:38:37;21.13;;;12.13;;
56343;SDS011;42245;42.058;24.700;2023-04-24T04:41:02;20.17;;;12.35;;
56343;SDS011;42245;42.058;24.700;2023-04-24T04:43:28;18.10;;;11.38;;
56343;SDS011;42245;42.058;24.700;2023-04-24T04:45:53;17.23;;;11.93;;
56343;SDS011;42245;42.058;24.700;2023-04-24T04:48:21;19.90;;;11.88;;
56343;SDS011;42245;42.058;24.700;2023-04-24T04:50:47;14.77;;;11.50;;
56343;SDS011;42245;42.058;24.700;2023-04-24T04:53:12;17.40;;;11.95;;
56343;SDS011;42245;42.058;24.700;2023-04-24T04:55:38;14.93;;;11.55;;
56343;SDS011;42245;42.058;24.700;2023-04-24T04:58:03;17.73;;;13.00;;
56343;SDS011;42245;42.058;24.700;2023-04-24T05:00:29;18.90;;;12.10;;
56343;SDS011;42245;42.058;24.700;2023-04-24T05:03:00;18.10;;;12.60;;
56343;SDS011;42245;42.058;24.700;2023-04-24T05:05:25;23.13;;;12.23;;
56343;SDS011;42245;42.058;24.700;2023-04-24T05:07:51;19.67;;;12.20;;
56343;SDS011;42245;42.058;24.700;2023-04-24T05:10:16;20.50;;;11.00;;
56343;SDS011;42245;42.058;24.700;2023-04-24T05:12:42;18.85;;;11.65;;
56343;SDS011;42245;42.058;24.700;2023-04-24T05:15:07;19.08;;;11.02;;
56343;SDS011;42245;42.058;24.700;2023-04-24T05:17:33;18.60;;;11.68;;
56343;SDS011;42245;42.058;24.700;2023-04-24T05:19:58;22.05;;;12.38;;
56343;SDS011;42245;42.058;24.700;2023-04-24T05:22:24;17.80;;;12.88;;
56343;SDS011;42245;42.058;24.700;2023-04-24T05:24:49;22.15;;;13.27;;
56343;SDS011;42245;42.058;24.700;2023-04-24T05:27:15;26.23;;;13.00;;
56343;SDS011;42245;42.058;24.700;2023-04-24T05:29:40;21.35;;;12.27;;
56343;SDS011;42245;42.058;24.700;2023-04-24T05:32:05;17.92;;;12.27;;
56343;SDS011;42245;42.058;24.700;2023-04-24T05:34:31;18.83;;;11.90;;
56343;SDS011;42245;42.058;24.700;2023-04-24T05:36:57;22.25;;;14.88;;
56343;SDS011;42245;42.058;24.700;2023-04-24T05:39:22;20.60;;;13.60;;
56343;SDS011;42245;42.058;24.700;2023-04-24T05:41:49;19.63;;;13.30;;
56343;SDS011;42245;42.058;24.700;2023-04-24T05:44:15;24.38;;;14.40;;
56343;SDS011;42245;42.058;24.700;2023-04-24T05:46:40;26.42;;;14.98;;
56343;SDS011;42245;42.058;24.700;2023-04-24T05:49:06;28.33;;;19.00;;
56343;SDS011;42245;42.058;24.700;2023-04-24T05:51:31;34.47;;;19.27;;
56343;SDS011;42245;42.058;24.700;2023-04-24T05:53:57;27.00;;;16.83;;
56343;SDS011;42245;42.058;24.700;2023-04-24T05:56:22;29.08;;;18.65;;
56343;SDS011;42245;42.058;24.700;2023-04-24T05:58:48;29.38;;;16.85;;
56343;SDS011;42245;42.058;24.700;2023-04-24T06:01:13;24.23;;;16.10;;
56343;SDS011;42245;42.058;24.700;2023-04-24T06:03:41;24.05;;;17.13;;
56343;SDS011;42245;42.058;24.700;2023-04-24T06:06:07;25.80;;;15.77;;
56343;SDS011;42245;42.058;24.700;2023-04-24T06:08:32;25.88;;;15.35;;
56343;SDS011;42245;42.058;24.700;2023-04-24T06:10:58;25.00;;;15.85;;
56343;SDS011;42245;42.058;24.700;2023-04-24T06:13:24;23.92;;;14.82;;
56343;SDS011;42245;42.058;24.700;2023-04-24T06:15:49;21.30;;;12.98;;
56343;SDS011;42245;42.058;24.700;2023-04-24T06:18:15;18.40;;;13.25;;
56343;SDS011;42245;42.058;24.700;2023-04-24T06:20:40;18.15;;;12.90;;
56343;SDS011;42245;42.058;24.700;2023-04-24T06:23:06;18.63;;;13.02;;
56343;SDS011;42245;42.058;24.700;2023-04-24T06:25:31;18.13;;;13.50;;
56343;SDS011;42245;42.058;24.700;2023-04-24T06:27:57;21.25;;;14.13;;
56343;SDS011;42245;42.058;24.700;2023-04-24T06:30:22;22.35;;;13.23;;
56343;SDS011;42245;42.058;24.700;2023-04-24T06:32:48;18.45;;;12.60;;
56343;SDS011;42245;42.058;24.700;2023-04-24T06:35:13;21.88;;;12.80;;
56343;SDS011;42245;42.058;24.700;2023-04-24T06:37:42;19.33;;;12.68;;
56343;SDS011;42245;42.058;24.700;2023-04-24T06:40:08;19.60;;;12.20;;
56343;SDS011;42245;42.058;24.700;2023-04-24T06:42:34;20.58;;;12.68;;
56343;SDS011;42245;42.058;24.700;2023-04-24T06:45:00;18.38;;;12.18;;
56343;SDS011;42245;42.058;24.700;2023-04-24T06:47:25;17.63;;;12.30;;
56343;SDS011;42245;42.058;24.700;2023-04-24T06:49:51;16.90;;;11.18;;
56343;SDS011;42245;42.058;24.700;2023-04-24T06:52:17;15.00;;;10.82;;
56343;SDS011;42245;42.058;24.700;2023-04-24T06:54:43;15.32;;;9.48;;
56343;SDS011;42245;42.058;24.700;2023-04-24T06:57:08;14.85;;;9.38;;
56343;SDS011;42245;42.058;24.700;2023-04-24T06:59:35;19.45;;;9.98;;
56343;SDS011;42245;42.058;24.700;2023-04-24T07:02:00;17.88;;;11.10;;
56343;SDS011;42245;42.058;24.700;2023-04-24T07:04:26;21.83;;;12.85;;
56343;SDS011;42245;42.058;24.700;2023-04-24T07:06:51;19.17;;;13.10;;
56343;SDS011;42245;42.058;24.700;2023-04-24T07:09:19;16.80;;;10.73;;
56343;SDS011;42245;42.058;24.700;2023-04-24T07:11:45;20.40;;;10.93;;
56343;SDS011;42245;42.058;24.700;2023-04-24T07:14:11;17.88;;;10.57;;
56343;SDS011;42245;42.058;24.700;2023-04-24T07:16:37;15.23;;;10.48;;
56343;SDS011;42245;42.058;24.700;2023-04-24T07:19:02;18.48;;;11.15;;
56343;SDS011;42245;42.058;24.700;2023-04-24T07:21:27;21.58;;;13.20;;
56343;SDS011;42245;42.058;24.700;2023-04-24T07:23:53;20.08;;;12.20;;
56343;SDS011;42245;42.058;24.700;2023-04-24T07:26:19;18.17;;;12.70;;
56343;SDS011;42245;42.058;24.700;2023-04-24T07:28:45;18.27;;;11.57;;
56343;SDS011;42245;42.058;24.700;2023-04-24T07:31:11;18.08;;;11.40;;
56343;SDS011;42245;42.058;24.700;2023-04-24T07:33:36;18.67;;;10.73;;
56343;SDS011;42245;42.058;24.700;2023-04-24T07:36:02;17.23;;;10.88;;
56343;SDS011;42245;42.058;24.700;2023-04-24T07:38:29;18.48;;;10.10;;
56343;SDS011;42245;42.058;24.700;2023-04-24T07:40:54;14.52;;;10.93;;
56343;SDS011;42245;42.058;24.700;2023-04-24T07:43:20;18.67;;;12.13;;
56343;SDS011;42245;42.058;24.700;2023-04-24T07:45:46;14.77;;;11.35;;
56343;SDS011;42245;42.058;24.700;2023-04-24T07:48:11;18.42;;;12.38;;
56343;SDS011;42245;42.058;24.700;2023-04-24T07:50:39;20.00;;;11.68;;
56343;SDS011;42245;42.058;24.700;2023-04-24T07:53:05;17.20;;;12.57;;
56343;SDS011;42245;42.058;24.700;2023-04-24T07:55:30;17.73;;;12.40;;
56343;SDS011;42245;42.058;24.700;2023-04-24T07:57:56;24.48;;;13.30;;
56343;SDS011;42245;42.058;24.700;2023-04-24T08:00:21;23.40;;;13.20;;
56343;SDS011;42245;42.058;24.700;2023-04-24T08:02:46;23.55;;;12.35;;
56343;SDS011;42245;42.058;24.700;2023-04-24T08:05:12;19.48;;;12.38;;
56343;SDS011;42245;42.058;24.700;2023-04-24T08:07:38;19.83;;;12.40;;
56343;SDS011;42245;42.058;24.700;2023-04-24T08:10:03;17.88;;;12.52;;
56343;SDS011;42245;42.058;24.700;2023-04-24T08:12:29;16.52;;;11.73;;
56343;SDS011;42245;42.058;24.700;2023-04-24T08:14:54;20.25;;;11.85;;
56343;SDS011;42245;42.058;24.700;2023-04-24T08:17:20;15.70;;;11.15;;
56343;SDS011;42245;42.058;24.700;2023-04-24T08:19:45;18.40;;;11.60;;
56343;SDS011;42245;42.058;24.700;2023-04-24T08:22:15;17.88;;;11.43;;
56343;SDS011;42245;42.058;24.700;2023-04-24T08:24:41;16.08;;;11.15;;
56343;SDS011;42245;42.058;24.700;2023-04-24T08:27:06;21.83;;;11.15;;
56343;SDS011;42245;42.058;24.700;2023-04-24T08:29:32;18.02;;;11.18;;
56343;SDS011;42245;42.058;24.700;2023-04-24T08:31:57;16.23;;;10.70;;
56343;SDS011;42245;42.058;24.700;2023-04-24T08:34:22;19.42;;;10.65;;
56343;SDS011;42245;42.058;24.700;2023-04-24T08:36:48;16.88;;;11.40;;
56343;SDS011;42245;42.058;24.700;2023-04-24T08:39:14;20.10;;;11.20;;
56343;SDS011;42245;42.058;24.700;2023-04-24T08:41:41;17.05;;;11.02;;
56343;SDS011;42245;42.058;24.700;2023-04-24T08:44:08;14.25;;;10.30;;
56343;SDS011;42245;42.058;24.700;2023-04-24T08:46:34;15.90;;;10.30;;
56343;SDS011;42245;42.058;24.700;2023-04-24T08:49:00;17.45;;;11.15;;
56343;SDS011;42245;42.058;24.700;2023-04-24T08:51:27;18.20;;;10.43;;
56343;SDS011;42245;42.058;24.700;2023-04-24T08:53:53;15.13;;;11.05;;
56343;SDS011;42245;42.058;24.700;2023-04-24T08:56:19;14.25;;;10.40;;
56343;SDS011;42245;42.058;24.700;2023-04-24T08:58:46;16.88;;;11.80;;
56343;SDS011;42245;42.058;24.700;2023-04-24T09:01:11;19.17;;;11.48;;
56343;SDS011;42245;42.058;24.700;2023-04-24T09:03:37;21.90;;;11.07;;
56343;SDS011;42245;42.058;24.700;2023-04-24T09:06:03;16.08;;;10.00;;
56343;SDS011;42245;42.058;24.700;2023-04-24T09:08:29;17.70;;;10.88;;
56343;SDS011;42245;42.058;24.700;2023-04-24T09:10:54;12.48;;;9.65;;
56343;SDS011;42245;42.058;24.700;2023-04-24T09:13:20;15.73;;;10.23;;
56343;SDS011;42245;42.058;24.700;2023-04-24T09:15:45;16.63;;;10.25;;
56343;SDS011;42245;42.058;24.700;2023-04-24T09:18:11;18.15;;;10.07;;
56343;SDS011;42245;42.058;24.700;2023-04-24T09:20:56;12.88;;;9.38;;
56343;SDS011;42245;42.058;24.700;2023-04-24T09:23:22;18.70;;;11.05;;
56343;SDS011;42245;42.058;24.700;2023-04-24T09:25:48;12.75;;;9.30;;
56343;SDS011;42245;42.058;24.700;2023-04-24T09:28:19;16.98;;;9.65;;
56343;SDS011;42245;42.058;24.700;2023-04-24T09:31:01;13.70;;;8.68;;
56343;SDS011;42245;42.058;24.700;2023-04-24T09:33:30;15.38;;;8.85;;
56343;SDS011;42245;42.058;24.700;2023-04-24T09:35:56;18.20;;;9.57;;
56343;SDS011;42245;42.058;24.700;2023-04-24T09:38:31;15.70;;;9.32;;
56343;SDS011;42245;42.058;24.700;2023-04-24T09:41:01;15.80;;;9.27;;
56343;SDS011;42245;42.058;24.700;2023-04-24T09:43:28;11.57;;;8.88;;
56343;SDS011;42245;42.058;24.700;2023-04-24T09:45:55;12.73;;;8.48;;
56343;SDS011;42245;42.058;24.700;2023-04-24T09:48:34;12.77;;;8.82;;
56343;SDS011;42245;42.058;24.700;2023-04-24T09:51:03;12.85;;;8.82;;
56343;SDS011;42245;42.058;24.700;2023-04-24T09:53:31;15.38;;;10.55;;
56343;SDS011;42245;42.058;24.700;2023-04-24T09:56:06;19.70;;;10.07;;
56343;SDS011;42245;42.058;24.700;2023-04-24T09:58:35;16.20;;;9.30;;
56343;SDS011;42245;42.058;24.700;2023-04-24T10:01:01;18.20;;;10.00;;
56343;SDS011;42245;42.058;24.700;2023-04-24T10:03:29;15.75;;;9.90;;
56343;SDS011;42245;42.058;24.700;2023-04-24T10:05:58;15.98;;;9.55;;
56343;SDS011;42245;42.058;24.700;2023-04-24T10:08:26;16.73;;;8.65;;
56343;SDS011;42245;42.058;24.700;2023-04-24T10:10:51;13.65;;;7.93;;
56343;SDS011;42245;42.058;24.700;2023-04-24T10:13:17;17.65;;;9.32;;
56343;SDS011;42245;42.058;24.700;2023-04-24T10:15:43;12.85;;;8.30;;
56343;SDS011;42245;42.058;24.700;2023-04-24T10:18:09;12.15;;;8.70;;
56343;SDS011;42245;42.058;24.700;2023-04-24T10:20:35;11.77;;;8.00;;
56343;SDS011;42245;42.058;24.700;2023-04-24T10:23:02;15.13;;;8.52;;
56343;SDS011;42245;42.058;24.700;2023-04-24T10:25:32;17.15;;;8.50;;
56343;SDS011;42245;42.058;24.700;2023-04-24T10:27:59;14.88;;;8.55;;
56343;SDS011;42245;42.058;24.700;2023-04-24T10:30:26;15.38;;;8.52;;
56343;SDS011;42245;42.058;24.700;2023-04-24T10:32:53;14.10;;;8.73;;
56343;SDS011;42245;42.058;24.700;2023-04-24T10:35:19;10.73;;;8.00;;
56343;SDS011;42245;42.058;24.700;2023-04-24T10:37:50;11.95;;;8.10;;
56343;SDS011;42245;42.058;24.700;2023-04-24T10:40:25;11.98;;;7.68;;
56343;SDS011;42245;42.058;24.700;2023-04-24T10:42:52;17.17;;;7.85;;
56343;SDS011;42245;42.058;24.700;2023-04-24T10:45:19;10.00;;;7.70;;
56343;SDS011;42245;42.058;24.700;2023-04-24T10:48:07;10.73;;;6.80;;
56343;SDS011;42245;42.058;24.700;2023-04-24T10:50:45;8.98;;;6.93;;
56343;SDS011;42245;42.058;24.700;2023-04-24T10:53:12;10.43;;;7.30;;
56343;SDS011;42245;42.058;24.700;2023-04-24T10:55:50;10.35;;;8.00;;
56343;SDS011;42245;42.058;24.700;2023-04-24T10:58:16;12.68;;;7.60;;
56343;SDS011;42245;42.058;24.700;2023-04-24T11:00:55;12.13;;;8.10;;
56343;SDS011;42245;42.058;24.700;2023-04-24T11:03:25;10.23;;;7.95;;
56343;SDS011;42245;42.058;24.700;2023-04-24T11:05:55;13.02;;;7.40;;
56343;SDS011;42245;42.058;24.700;2023-04-24T11:08:31;9.27;;;7.32;;
56343;SDS011;42245;42.058;24.700;2023-04-24T11:11:13;8.65;;;6.85;;
56343;SDS011;42245;42.058;24.700;2023-04-24T11:14:23;10.10;;;6.80;;
56343;SDS011;42245;42.058;24.700;2023-04-24T11:21:27;11.93;;;6.88;;
56343;SDS011;42245;42.058;24.700;2023-04-24T11:23:56;11.88;;;7.03;;
56343;SDS011;42245;42.058;24.700;2023-04-24T11:26:23;8.75;;;7.22;;
56343;SDS011;42245;42.058;24.700;2023-04-24T11:28:55;10.88;;;7.78;;
56343;SDS011;42245;42.058;24.700;2023-04-24T11:31:38;11.10;;;6.93;;
56343;SDS011;42245;42.058;24.700;2023-04-24T11:34:11;9.68;;;7.68;;
56343;SDS011;42245;42.058;24.700;2023-04-24T11:36:39;12.73;;;7.10;;
56343;SDS011;42245;42.058;24.700;2023-04-24T11:39:05;10.50;;;6.85;;
56343;SDS011;42245;42.058;24.700;2023-04-24T11:41:31;11.43;;;7.03;;
56343;SDS011;42245;42.058;24.700;2023-04-24T11:43:58;11.35;;;6.63;;
56343;SDS011;42245;42.058;24.700;2023-04-24T11:46:26;11.35;;;7.57;;
56343;SDS011;42245;42.058;24.700;2023-04-24T11:48:53;10.35;;;7.25;;
56343;SDS011;42245;42.058;24.700;2023-04-24T11:51:19;10.15;;;7.50;;
56343;SDS011;42245;42.058;24.700;2023-04-24T11:53:44;9.98;;;6.93;;
56343;SDS011;42245;42.058;24.700;2023-04-24T11:56:09;10.48;;;7.47;;
56343;SDS011;42245;42.058;24.700;2023-04-24T11:58:35;12.65;;;7.47;;
56343;SDS011;42245;42.058;24.700;2023-04-24T12:01:01;12.50;;;6.57;;
56343;SDS011;42245;42.058;24.700;2023-04-24T12:03:27;12.98;;;6.72;;
56343;SDS011;42245;42.058;24.700;2023-04-24T12:05:52;10.85;;;6.70;;
56343;SDS011;42245;42.058;24.700;2023-04-24T12:08:29;9.23;;;6.57;;
56343;SDS011;42245;42.058;24.700;2023-04-24T12:10:56;9.45;;;6.22;;
56343;SDS011;42245;42.058;24.700;2023-04-24T12:13:21;9.88;;;6.82;;
56343;SDS011;42245;42.058;24.700;2023-04-24T12:15:46;9.27;;;6.53;;
56343;SDS011;42245;42.058;24.700;2023-04-24T12:18:12;11.45;;;6.80;;
56343;SDS011;42245;42.058;24.700;2023-04-24T12:20:38;13.73;;;6.75;;
56343;SDS011;42245;42.058;24.700;2023-04-24T12:23:05;11.57;;;6.70;;
56343;SDS011;42245;42.058;24.700;2023-04-24T12:25:31;10.65;;;7.00;;
56343;SDS011;42245;42.058;24.700;2023-04-24T12:30:28;9.30;;;6.10;;
56343;SDS011;42245;42.058;24.700;2023-04-24T12:32:56;9.13;;;6.35;;
56343;SDS011;42245;42.058;24.700;2023-04-24T12:35:23;10.75;;;6.40;;
56343;SDS011;42245;42.058;24.700;2023-04-24T12:37:49;7.72;;;6.70;;
56343;SDS011;42245;42.058;24.700;2023-04-24T12:40:16;8.13;;;6.97;;
56343;SDS011;42245;42.058;24.700;2023-04-24T12:42:43;7.82;;;6.30;;
56343;SDS011;42245;42.058;24.700;2023-04-24T12:45:10;9.32;;;6.55;;
56343;SDS011;42245;42.058;24.700;2023-04-24T12:47:39;8.13;;;6.60;;
56343;SDS011;42245;42.058;24.700;2023-04-24T12:50:09;8.50;;;6.82;;
56343;SDS011;42245;42.058;24.700;2023-04-24T12:52:36;10.02;;;6.53;;
56343;SDS011;42245;42.058;24.700;2023-04-24T12:55:02;8.20;;;5.88;;
56343;SDS011;42245;42.058;24.700;2023-04-24T12:57:28;7.53;;;6.20;;
56343;SDS011;42245;42.058;24.700;2023-04-24T12:59:55;8.38;;;5.93;;
56343;SDS011;42245;42.058;24.700;2023-04-24T13:02:21;9.10;;;6.80;;
56343;SDS011;42245;42.058;24.700;2023-04-24T13:04:50;9.05;;;5.95;;
56343;SDS011;42245;42.058;24.700;2023-04-24T13:07:16;8.60;;;6.28;;
56343;SDS011;42245;42.058;24.700;2023-04-24T13:09:42;7.88;;;6.22;;
56343;SDS011;42245;42.058;24.700;2023-04-24T13:12:08;7.50;;;5.57;;
56343;SDS011;42245;42.058;24.700;2023-04-24T13:14:35;7.82;;;5.65;;
56343;SDS011;42245;42.058;24.700;2023-04-24T13:17:00;8.15;;;5.72;;
56343;SDS011;42245;42.058;24.700;2023-04-24T13:19:26;6.97;;;5.75;;
56343;SDS011;42245;42.058;24.700;2023-04-24T13:21:52;7.85;;;5.45;;
56343;SDS011;42245;42.058;24.700;2023-04-24T13:24:19;7.88;;;5.53;;
56343;SDS011;42245;42.058;24.700;2023-04-24T13:26:45;8.85;;;5.53;;
56343;SDS011;42245;42.058;24.700;2023-04-24T13:29:10;11.75;;;5.50;;
56343;SDS011;42245;42.058;24.700;2023-04-24T13:31:36;9.73;;;5.50;;
56343;SDS011;42245;42.058;24.700;2023-04-24T13:34:02;6.38;;;5.60;;
56343;SDS011;42245;42.058;24.700;2023-04-24T13:36:27;9.40;;;5.40;;
56343;SDS011;42245;42.058;24.700;2023-04-24T13:38:52;7.93;;;5.63;;
56343;SDS011;42245;42.058;24.700;2023-04-24T13:41:18;6.95;;;5.40;;
56343;SDS011;42245;42.058;24.700;2023-04-24T13:43:43;7.13;;;4.90;;
56343;SDS011;42245;42.058;24.700;2023-04-24T13:46:09;8.32;;;5.13;;
56343;SDS011;42245;42.058;24.700;2023-04-24T13:48:34;9.43;;;5.07;;
56343;SDS011;42245;42.058;24.700;2023-04-24T13:51:00;7.88;;;5.30;;
56343;SDS011;42245;42.058;24.700;2023-04-24T13:53:25;11.30;;;5.43;;
56343;SDS011;42245;42.058;24.700;2023-04-24T13:55:51;7.63;;;5.30;;
56343;SDS011;42245;42.058;24.700;2023-04-24T13:58:16;6.32;;;4.90;;
56343;SDS011;42245;42.058;24.700;2023-04-24T14:00:42;16.73;;;5.20;;
56343;SDS011;42245;42.058;24.700;2023-04-24T14:03:07;9.35;;;4.90;;
56343;SDS011;42245;42.058;24.700;2023-04-24T14:05:33;8.65;;;5.30;;
56343;SDS011;42245;42.058;24.700;2023-04-24T14:07:58;5.00;;;4.50;;
56343;SDS011;42245;42.058;24.700;2023-04-24T14:10:23;6.47;;;5.07;;
56343;SDS011;42245;42.058;24.700;2023-04-24T14:12:49;7.38;;;5.10;;
56343;SDS011;42245;42.058;24.700;2023-04-24T14:15:14;9.40;;;5.35;;
56343;SDS011;42245;42.058;24.700;2023-04-24T14:17:40;5.32;;;4.75;;
56343;SDS011;42245;42.058;24.700;2023-04-24T14:20:05;8.55;;;5.55;;